Pollock, South Dakota
Current Conditions -  °F | °C
As of 4:15 PM on Sunday 21 Dec 2014 (Local Time) from K7L2 Reporting Station
Haze Haze  
Wind Chill: 21°   Ceiling: 300
Heat Index: 30°   Visibility: 5mi
Dew Point: 30°   Wind: 10mph
Humidity: 100%   Direction: 140°SE
Pressure: 29.45"   Gusts: NA
Location:  45.9°N, 100.29°W
Report Text: K7L2 212315Z AUTO 14009KT 5SM BR OVC003 M01/M01 A2945 RMK AO2
Loading
Personal Weather Stations






























Interactive Weather Map New forecast layout! Learn more

10-Day Weather Forecast

Advertisements
Track Severe Weather on mobile